createdAt,value
2022-12-05T00:00:36.699Z,97359.25
2022-12-05T00:04:41.203Z,97368.19
2022-12-05T00:08:45.127Z,97374.22
2022-12-05T00:12:48.801Z,97370.25
2022-12-05T00:16:51.934Z,97395.31
2022-12-05T00:20:56.898Z,97400.28
2022-12-05T00:25:00.472Z,97405.19
2022-12-05T00:29:03.607Z,97404.69
2022-12-05T00:33:07.440Z,97421.44
2022-12-05T00:37:12.494Z,97432.75
2022-12-05T00:41:17.984Z,97431.72
2022-12-05T00:45:21.543Z,97428.13
2022-12-05T00:49:24.668Z,97423.72
2022-12-05T00:53:29.586Z,97435.50
2022-12-05T00:57:34.013Z,97447.50
2022-12-05T01:01:39.734Z,97455.16
2022-12-05T01:05:43.282Z,97476.66
2022-12-05T01:09:48.514Z,97472.59
2022-12-05T01:13:51.943Z,97474.28
2022-12-05T01:17:55.599Z,97477.84
2022-12-05T01:22:00.216Z,97486.84
2022-12-05T01:26:07.970Z,97503.19
2022-12-05T01:30:11.799Z,97495.44
2022-12-05T01:34:17.804Z,97503.38
2022-12-05T01:38:21.211Z,97488.13
2022-12-05T01:42:26.685Z,97507.47
2022-12-05T01:46:32.759Z,97512.09
2022-12-05T01:50:36.742Z,97504.22
2022-12-05T01:54:40.671Z,97515.75
2022-12-05T01:58:47.554Z,97511.38
2022-12-05T02:02:54.056Z,97500.06
2022-12-05T02:06:57.723Z,97511.75
2022-12-05T02:11:01.112Z,97488.44
2022-12-05T02:15:23.593Z,97490.03
2022-12-05T02:19:59.306Z,97492.72
2022-12-05T02:24:27.204Z,97493.06
2022-12-05T02:29:00.556Z,97500.31
2022-12-05T02:33:14.601Z,97506.59
2022-12-05T02:37:24.714Z,97511.53
2022-12-05T02:41:34.045Z,97498.06
2022-12-05T02:45:41.482Z,97502.31
2022-12-05T02:49:46.802Z,97512.09
2022-12-05T02:53:52.108Z,97510.56
2022-12-05T02:58:00.444Z,97501.09
2022-12-05T03:02:03.997Z,97516.53
2022-12-05T03:06:15.449Z,97521.63
2022-12-05T03:10:23.226Z,97507.00
2022-12-05T03:14:30.262Z,97522.38
2022-12-05T03:18:39.293Z,97518.09
2022-12-05T03:22:48.423Z,97527.63
2022-12-05T03:27:03.300Z,97515.03
2022-12-05T03:31:12.618Z,97528.22
2022-12-05T03:35:24.957Z,97534.78
2022-12-05T03:39:34.527Z,97525.81
2022-12-05T03:43:46.176Z,97530.72
2022-12-05T03:47:52.904Z,97544.31
2022-12-05T03:52:02.112Z,97550.03
2022-12-05T03:56:12.302Z,97540.25
2022-12-05T04:00:19.581Z,97552.22
2022-12-05T04:04:27.554Z,97561.63
2022-12-05T04:08:35.137Z,97565.97
2022-12-05T04:12:43.352Z,97565.16
2022-12-05T04:17:04.978Z,97572.91
2022-12-05T04:21:26.260Z,97569.66
2022-12-05T04:25:38.547Z,97584.31
2022-12-05T04:29:52.459Z,97576.81
2022-12-05T04:34:00.352Z,97580.13
2022-12-05T04:38:08.577Z,97589.63
2022-12-05T04:42:16.316Z,97591.53
2022-12-05T04:46:24.157Z,97588.13
2022-12-05T04:50:31.382Z,97584.03
2022-12-05T04:54:39.618Z,97575.00
2022-12-05T04:58:43.273Z,97587.81
2022-12-05T05:02:52.277Z,97586.06
2022-12-05T05:06:55.893Z,97600.84
2022-12-05T05:11:14.518Z,97601.69
2022-12-05T05:15:18.232Z,97603.72
2022-12-05T05:19:23.285Z,97610.38
2022-12-05T05:23:29.709Z,97618.41
2022-12-05T05:27:32.663Z,97617.69
2022-12-05T05:31:36.833Z,97638.09
2022-12-05T05:35:41.697Z,97626.03
2022-12-05T05:39:45.489Z,97638.09
2022-12-05T05:43:49.394Z,97638.81
2022-12-05T05:47:52.500Z,97649.81
2022-12-05T05:51:57.431Z,97647.94
2022-12-05T05:56:04.743Z,97634.88
2022-12-05T06:00:09.832Z,97640.63
2022-12-05T06:04:12.830Z,97652.59
2022-12-05T06:08:17.758Z,97666.88
2022-12-05T06:12:21.382Z,97674.50
2022-12-05T06:16:25.800Z,97681.19
2022-12-05T06:20:29.420Z,97689.63
2022-12-05T06:24:34.012Z,97689.38
2022-12-05T06:28:37.795Z,97707.34
2022-12-05T06:32:42.065Z,97722.84
2022-12-05T06:36:46.324Z,97724.34
2022-12-05T06:40:50.700Z,97727.66
2022-12-05T06:44:54.313Z,97743.16
2022-12-05T06:48:58.980Z,97743.81
2022-12-05T06:53:02.824Z,97756.63
2022-12-05T06:57:07.805Z,97758.97
2022-12-05T07:01:31.345Z,97764.84
2022-12-05T07:05:35.464Z,97767.97
2022-12-05T07:09:49.060Z,97766.75
2022-12-05T07:13:54.265Z,97768.28
2022-12-05T07:17:57.459Z,97767.19
2022-12-05T07:22:00.525Z,97775.63
2022-12-05T07:26:07.917Z,97781.50
2022-12-05T07:30:13.156Z,97782.09
2022-12-05T07:34:16.830Z,97788.75
2022-12-05T07:38:19.958Z,97800.59
2022-12-05T07:42:23.584Z,97802.09
2022-12-05T07:46:30.270Z,97813.16
2022-12-05T07:50:33.923Z,97807.97
2022-12-05T07:54:37.149Z,97818.06
2022-12-05T07:58:40.788Z,97822.28
2022-12-05T08:02:46.140Z,97831.00
2022-12-05T08:06:49.506Z,97844.91
2022-12-05T08:10:53.431Z,97832.75
2022-12-05T08:14:57.365Z,97833.84
2022-12-05T08:19:04.012Z,97841.72
2022-12-05T08:23:07.579Z,97845.16
2022-12-05T08:27:10.858Z,97852.09
2022-12-05T08:31:16.529Z,97848.53
2022-12-05T08:35:21.534Z,97851.94
2022-12-05T08:39:24.851Z,97858.88
2022-12-05T08:43:28.404Z,97868.44
2022-12-05T08:47:32.589Z,97871.69
2022-12-05T08:51:37.882Z,97868.97
2022-12-05T08:55:41.619Z,97880.16
2022-12-05T08:59:47.230Z,97870.34
2022-12-05T09:03:50.947Z,97864.13
2022-12-05T09:07:55.835Z,97856.25
2022-12-05T09:12:00.878Z,97854.06
2022-12-05T09:16:09.040Z,97854.53
2022-12-05T09:20:14.523Z,97852.75
2022-12-05T09:24:19.225Z,97865.88
2022-12-05T09:28:24.154Z,97873.25
2022-12-05T09:32:28.297Z,97863.56
2022-12-05T09:36:33.597Z,97872.16
2022-12-05T09:40:43.608Z,97861.56
2022-12-05T09:45:00.906Z,97840.84
2022-12-05T09:49:05.871Z,97862.09
2022-12-05T09:53:16.405Z,97859.13
2022-12-05T09:57:33.859Z,97851.81
2022-12-05T10:01:43.184Z,97853.03
2022-12-05T10:05:52.063Z,97868.19
2022-12-05T10:10:04.782Z,97874.16
2022-12-05T10:14:25.119Z,97866.53
2022-12-05T10:18:38.851Z,97865.28
2022-12-05T10:22:49.319Z,97850.16
2022-12-05T10:26:57.381Z,97855.56
2022-12-05T10:31:07.238Z,97849.03
2022-12-05T10:35:18.877Z,97838.00
2022-12-05T10:39:22.696Z,97838.25
2022-12-05T10:43:29.447Z,97827.22
2022-12-05T10:47:35.058Z,97825.31
2022-12-05T10:51:39.368Z,97834.72
2022-12-05T10:56:06.371Z,97839.75
2022-12-05T11:00:15.929Z,97843.06
2022-12-05T11:04:28.201Z,97849.03
2022-12-05T11:09:02.969Z,97847.16
2022-12-05T11:12:59.339Z,97838.28
2022-12-05T11:17:04.948Z,97839.53
2022-12-05T11:21:14.532Z,97840.63
2022-12-05T11:25:26.544Z,97846.94
2022-12-05T11:29:37.032Z,97837.72
2022-12-05T11:33:41.428Z,97842.63
2022-12-05T11:37:53.925Z,97832.00
2022-12-05T11:46:58.420Z,97847.84
2022-12-05T11:51:18.170Z,97850.72
2022-12-05T11:55:28.852Z,97843.09
2022-12-05T11:59:55.288Z,97838.63
2022-12-05T12:04:26.056Z,97833.16
2022-12-05T12:08:31.631Z,97835.63
2022-12-05T12:12:48.956Z,97828.66
2022-12-05T12:17:04.424Z,97823.91
2022-12-05T12:21:19.862Z,97824.56
2022-12-05T12:25:35.248Z,97826.22
2022-12-05T12:30:01.974Z,97815.97
2022-12-05T12:34:21.224Z,97813.25
2022-12-05T12:38:46.879Z,97817.59
2022-12-05T12:43:07.311Z,97811.59
2022-12-05T12:47:19.967Z,97812.56
2022-12-05T12:51:23.040Z,97811.06
2022-12-05T12:55:33.433Z,97807.78
2022-12-05T12:59:59.077Z,97806.44
2022-12-05T13:04:13.158Z,97805.19
2022-12-05T13:08:25.442Z,97803.16
2022-12-05T13:12:31.620Z,97793.31
2022-12-05T13:16:45.864Z,97811.22
2022-12-05T13:20:54.431Z,97816.22
2022-12-05T13:25:05.977Z,97822.13
2022-12-05T13:29:22.769Z,97823.75
2022-12-05T13:33:28.837Z,97826.28
2022-12-05T13:37:51.564Z,97830.63
2022-12-05T13:42:16.586Z,97831.38
2022-12-05T13:46:27.840Z,97839.84
2022-12-05T13:50:37.675Z,97836.28
2022-12-05T13:54:47.875Z,97837.75
2022-12-05T13:58:52.725Z,97846.03
2022-12-05T14:02:59.094Z,97858.53
2022-12-05T14:07:03.077Z,97856.31
2022-12-05T14:11:13.103Z,97853.84
2022-12-05T14:15:43.451Z,97862.56
2022-12-05T14:20:01.867Z,97860.25
2022-12-05T14:24:12.779Z,97854.41
2022-12-05T14:28:38.150Z,97858.88
2022-12-05T14:32:44.639Z,97851.34
2022-12-05T14:37:06.663Z,97858.41
2022-12-05T14:41:17.244Z,97849.16
2022-12-05T14:45:30.545Z,97854.59
2022-12-05T14:49:55.406Z,97849.53
2022-12-05T14:54:04.566Z,97842.84
2022-12-05T14:58:18.123Z,97848.88
2022-12-05T15:02:28.896Z,97850.75
2022-12-05T15:06:35.227Z,97847.50
2022-12-05T15:10:41.834Z,97839.84
2022-12-05T15:14:51.793Z,97834.69
2022-12-05T15:19:00.296Z,97825.25
2022-12-05T15:23:04.073Z,97834.69
2022-12-05T15:27:11.764Z,97837.25
2022-12-05T15:31:15.987Z,97849.38
2022-12-05T15:35:24.053Z,97852.91
2022-12-05T15:39:28.791Z,97852.91
2022-12-05T15:43:33.865Z,97855.63
2022-12-05T15:47:37.375Z,97852.34
2022-12-05T15:51:42.523Z,97848.38
2022-12-05T15:55:50.587Z,97844.81
2022-12-05T15:59:58.342Z,97853.41
2022-12-05T16:04:06.868Z,97857.88
2022-12-05T16:08:11.476Z,97864.00
2022-12-05T16:12:24.852Z,97856.50
2022-12-05T16:16:32.628Z,97857.47
2022-12-05T16:20:37.735Z,97852.28
2022-12-05T16:24:46.448Z,97849.81
2022-12-05T16:29:00.790Z,97854.16
2022-12-05T16:33:07.418Z,97849.13
2022-12-05T16:37:20.327Z,97859.59
2022-12-05T16:41:37.332Z,97864.88
2022-12-05T16:45:42.270Z,97852.78
2022-12-05T16:49:47.258Z,97847.88
2022-12-05T16:53:52.661Z,97853.03
2022-12-05T16:57:57.611Z,97852.19
2022-12-05T17:02:02.528Z,97842.81
2022-12-05T17:06:07.618Z,97848.13
2022-12-05T17:10:11.482Z,97837.78
2022-12-05T17:14:19.120Z,97842.94
2022-12-05T17:18:29.605Z,97842.38
2022-12-05T17:22:35.003Z,97846.72
2022-12-05T17:26:38.045Z,97845.78
2022-12-05T17:30:43.302Z,97846.72
2022-12-05T17:34:46.855Z,97849.44
2022-12-05T17:38:50.928Z,97839.22
2022-12-05T17:42:54.572Z,97846.16
2022-12-05T17:47:04.475Z,97846.97
2022-12-05T17:51:13.660Z,97851.31
2022-12-05T17:55:20.560Z,97856.63
2022-12-05T17:59:23.630Z,97852.41
2022-12-05T18:03:28.821Z,97848.31
2022-12-05T18:07:32.795Z,97854.56
2022-12-05T18:11:36.767Z,97854.81
2022-12-05T18:20:06.615Z,97854.16
2022-12-05T18:24:10.217Z,97842.91
2022-12-05T18:28:17.826Z,97841.19
2022-12-05T18:32:26.871Z,97839.59
2022-12-05T18:36:32.562Z,97834.69
2022-12-05T18:40:41.159Z,97830.63
2022-12-05T18:44:47.621Z,97823.41
2022-12-05T18:48:53.341Z,97818.47
2022-12-05T18:52:58.607Z,97818.63
2022-12-05T18:57:02.191Z,97820.34
2022-12-05T19:01:08.246Z,97827.16
2022-12-05T19:05:12.403Z,97842.63
2022-12-05T19:09:24.611Z,97837.91
2022-12-05T19:13:30.334Z,97830.75
2022-12-05T19:22:02.758Z,97823.84
2022-12-05T19:26:10.284Z,97828.16
2022-12-05T19:30:16.491Z,97836.13
2022-12-05T19:34:20.294Z,97836.47
2022-12-05T19:38:24.188Z,97840.22
2022-12-05T19:42:29.686Z,97843.84
2022-12-05T19:46:35.170Z,97843.97
2022-12-05T19:50:38.830Z,97833.66
2022-12-05T19:54:42.332Z,97824.97
2022-12-05T19:58:48.516Z,97824.75
2022-12-05T20:02:51.616Z,97821.22
2022-12-05T20:06:55.354Z,97850.31
2022-12-05T20:10:58.712Z,97861.78
2022-12-05T20:15:04.303Z,97831.53
2022-12-05T20:19:16.676Z,97812.69
2022-12-05T20:23:21.175Z,97823.13
2022-12-05T20:27:25.877Z,97811.97
2022-12-05T20:31:37.460Z,97824.97
2022-12-05T20:35:42.198Z,97827.78
2022-12-05T20:39:46.525Z,97835.84
2022-12-05T20:43:55.913Z,97830.94
